createdAt,value
2023-03-18T00:02:38.283Z,14.23
2023-03-18T00:05:05.927Z,13.60
2023-03-18T00:07:35.854Z,13.80
2023-03-18T00:10:03.839Z,16.13
2023-03-18T00:12:31.361Z,14.70
2023-03-18T00:14:58.160Z,13.77
2023-03-18T00:17:25.843Z,14.52
2023-03-18T00:19:52.595Z,14.10
2023-03-18T00:22:19.599Z,13.55
2023-03-18T00:24:46.638Z,13.35
2023-03-18T00:27:14.202Z,13.10
2023-03-18T00:29:41.704Z,12.80
2023-03-18T00:32:09.227Z,14.48
2023-03-18T00:34:36.172Z,11.05
2023-03-18T00:37:03.729Z,12.82
2023-03-18T00:39:33.169Z,9.23
2023-03-18T00:42:02.202Z,10.48
2023-03-18T00:44:29.041Z,10.75
2023-03-18T00:46:55.837Z,10.93
2023-03-18T00:49:22.723Z,10.15
2023-03-18T00:51:49.851Z,10.45
2023-03-18T00:54:19.827Z,11.50
2023-03-18T00:56:47.866Z,10.73
2023-03-18T00:59:14.705Z,11.68
2023-03-18T01:01:41.476Z,10.35
2023-03-18T01:04:08.319Z,10.15
2023-03-18T01:06:36.716Z,10.55
2023-03-18T01:09:05.222Z,12.65
2023-03-18T01:11:32.169Z,10.30
2023-03-18T01:13:59.900Z,11.20
2023-03-18T01:16:26.896Z,12.23
2023-03-18T01:18:54.028Z,12.13
2023-03-18T01:21:21.091Z,11.35
2023-03-18T01:23:48.066Z,11.23
2023-03-18T01:26:14.823Z,14.48
2023-03-18T01:28:42.578Z,11.55
2023-03-18T01:31:09.647Z,11.35
2023-03-18T01:33:37.781Z,11.18
2023-03-18T01:36:05.460Z,10.88
2023-03-18T01:38:32.394Z,10.85
2023-03-18T01:40:59.929Z,12.90
2023-03-18T01:43:35.874Z,11.32
2023-03-18T01:46:41.511Z,10.40
2023-03-18T01:49:12.791Z,12.05
2023-03-18T01:51:40.932Z,11.57
2023-03-18T01:54:07.966Z,11.90
2023-03-18T01:56:36.997Z,13.05
2023-03-18T01:59:03.787Z,11.95
2023-03-18T02:02:12.351Z,11.95
2023-03-18T02:05:02.684Z,12.45
2023-03-18T02:07:31.924Z,11.75
2023-03-18T02:10:00.096Z,13.30
2023-03-18T02:12:33.773Z,12.05
2023-03-18T02:15:06.146Z,11.60
2023-03-18T02:17:35.125Z,11.35
2023-03-18T02:20:25.081Z,11.85
2023-03-18T02:23:25.935Z,10.40
2023-03-18T02:26:13.623Z,10.60
2023-03-18T02:28:40.426Z,9.48
2023-03-18T02:31:10.481Z,9.52
2023-03-18T02:33:39.090Z,10.68
2023-03-18T02:36:08.669Z,11.88
2023-03-18T02:38:35.580Z,9.82
2023-03-18T02:41:02.584Z,9.93
2023-03-18T02:43:32.748Z,9.80
2023-03-18T02:46:03.035Z,9.82
2023-03-18T02:48:33.348Z,12.15
2023-03-18T02:51:00.092Z,9.98
2023-03-18T02:53:27.307Z,9.85
2023-03-18T02:55:54.142Z,12.23
2023-03-18T02:58:20.865Z,12.93
2023-03-18T03:00:47.791Z,13.13
2023-03-18T03:03:14.722Z,13.15
2023-03-18T03:05:41.525Z,12.70
2023-03-18T03:08:08.930Z,12.65
2023-03-18T03:10:35.834Z,12.50
2023-03-18T03:13:02.587Z,13.07
2023-03-18T03:15:29.664Z,12.25
2023-03-18T03:17:56.533Z,12.30
2023-03-18T03:20:23.814Z,10.88
2023-03-18T03:22:50.724Z,11.13
2023-03-18T03:25:17.594Z,10.55
2023-03-18T03:27:44.332Z,11.27
2023-03-18T03:30:11.906Z,10.73
2023-03-18T03:32:39.969Z,11.13
2023-03-18T03:35:08.760Z,10.48
2023-03-18T03:37:36.306Z,11.18
2023-03-18T03:40:06.314Z,10.05
2023-03-18T03:42:33.054Z,10.73
2023-03-18T03:45:00.271Z,10.05
2023-03-18T03:47:27.031Z,10.50
2023-03-18T03:49:53.962Z,10.85
2023-03-18T03:52:20.821Z,10.32
2023-03-18T03:54:47.650Z,9.93
2023-03-18T03:57:14.405Z,9.30
2023-03-18T03:59:41.371Z,11.23
2023-03-18T04:02:09.066Z,10.40
2023-03-18T04:04:35.911Z,10.10
2023-03-18T04:07:03.434Z,9.38
2023-03-18T04:09:30.655Z,9.05
2023-03-18T04:11:57.586Z,9.13
2023-03-18T04:14:24.433Z,9.88
2023-03-18T04:16:51.176Z,9.88
2023-03-18T04:19:19.035Z,8.88
2023-03-18T04:21:46.357Z,8.10
2023-03-18T04:24:13.093Z,8.35
2023-03-18T04:26:39.831Z,8.20
2023-03-18T04:29:07.148Z,8.85
2023-03-18T04:31:33.931Z,8.30
2023-03-18T04:34:00.744Z,7.93
2023-03-18T04:36:28.594Z,7.75
2023-03-18T04:38:55.515Z,7.80
2023-03-18T04:41:22.232Z,8.23
2023-03-18T04:43:49.166Z,8.55
2023-03-18T04:46:15.963Z,8.38
2023-03-18T04:48:42.740Z,8.70
2023-03-18T04:51:09.696Z,8.95
2023-03-18T04:53:36.858Z,9.45
2023-03-18T04:56:04.387Z,9.98
2023-03-18T04:58:31.712Z,11.27
2023-03-18T05:00:58.462Z,11.70
2023-03-18T05:03:25.414Z,12.18
2023-03-18T05:05:52.528Z,13.80
2023-03-18T05:08:19.340Z,13.93
2023-03-18T05:10:46.337Z,14.05
2023-03-18T05:13:13.225Z,14.98
2023-03-18T05:15:40.147Z,13.93
2023-03-18T05:18:07.013Z,16.13
2023-03-18T05:20:34.125Z,14.85
2023-03-18T05:23:00.922Z,13.85
2023-03-18T05:25:28.226Z,14.40
2023-03-18T05:27:55.007Z,15.00
2023-03-18T05:30:21.936Z,14.30
2023-03-18T05:32:48.912Z,14.88
2023-03-18T05:35:15.768Z,14.77
2023-03-18T05:37:43.685Z,14.85
2023-03-18T05:40:12.180Z,13.88
2023-03-18T05:42:54.935Z,13.88
2023-03-18T05:45:22.580Z,14.68
2023-03-18T05:47:49.376Z,13.75
2023-03-18T05:50:29.307Z,14.45
2023-03-18T05:52:56.145Z,15.35
2023-03-18T05:55:23.584Z,15.13
2023-03-18T05:57:50.475Z,15.57
2023-03-18T06:00:19.119Z,14.20
2023-03-18T06:02:46.522Z,14.82
2023-03-18T06:05:13.580Z,14.75
2023-03-18T06:07:40.500Z,15.55
2023-03-18T06:10:08.110Z,14.95
2023-03-18T06:12:36.122Z,14.70
2023-03-18T06:15:03.811Z,15.00
2023-03-18T06:17:30.564Z,14.63
2023-03-18T06:19:57.446Z,14.65
2023-03-18T06:22:24.248Z,15.50
2023-03-18T06:24:51.070Z,17.63
2023-03-18T06:27:18.031Z,14.43
2023-03-18T06:29:45.035Z,14.50
2023-03-18T06:32:12.167Z,12.95
2023-03-18T06:34:39.153Z,13.02
2023-03-18T06:37:06.135Z,13.63
2023-03-18T06:39:32.969Z,13.40
2023-03-18T06:41:59.830Z,13.05
2023-03-18T06:44:26.788Z,14.82
2023-03-18T06:46:53.865Z,10.90
2023-03-18T06:49:20.634Z,12.50
2023-03-18T06:51:48.983Z,15.50
2023-03-18T06:54:16.929Z,18.17
2023-03-18T06:56:46.198Z,14.85
2023-03-18T06:59:14.070Z,14.85
2023-03-18T07:01:41.545Z,14.70
2023-03-18T07:04:08.427Z,13.40
2023-03-18T07:06:35.307Z,11.63
2023-03-18T07:09:02.058Z,12.10
2023-03-18T07:11:28.790Z,13.35
2023-03-18T07:13:56.337Z,13.05
2023-03-18T07:16:23.235Z,14.07
2023-03-18T07:18:50.083Z,14.23
2023-03-18T07:21:17.028Z,13.88
2023-03-18T07:23:43.868Z,14.23
2023-03-18T07:26:12.542Z,19.95
2023-03-18T07:28:39.467Z,16.88
2023-03-18T07:31:06.317Z,21.67
2023-03-18T07:33:33.313Z,23.15
2023-03-18T07:36:00.657Z,27.20
2023-03-18T07:38:27.951Z,37.10
2023-03-18T07:40:54.781Z,40.80
2023-03-18T07:43:21.661Z,27.33
2023-03-18T07:45:48.477Z,29.10
2023-03-18T07:48:15.385Z,38.15
2023-03-18T07:50:42.364Z,38.78
2023-03-18T07:53:09.416Z,27.02
2023-03-18T07:55:36.178Z,27.55
2023-03-18T07:58:04.928Z,26.83
2023-03-18T08:00:32.550Z,25.50
2023-03-18T08:03:00.405Z,24.15
2023-03-18T08:05:27.747Z,24.25
2023-03-18T08:07:55.357Z,20.98
2023-03-18T08:10:22.765Z,20.63
2023-03-18T08:12:53.554Z,26.42
2023-03-18T08:15:22.149Z,20.50
2023-03-18T08:17:49.120Z,17.92
2023-03-18T08:20:17.068Z,17.25
2023-03-18T08:22:46.074Z,16.45
2023-03-18T08:25:14.171Z,22.27
2023-03-18T08:27:41.072Z,19.25
2023-03-18T08:30:08.939Z,13.73
2023-03-18T08:32:35.737Z,12.93
2023-03-18T08:35:02.884Z,11.35
2023-03-18T08:37:29.651Z,11.77
2023-03-18T08:39:56.787Z,11.10
2023-03-18T08:42:23.572Z,14.20
2023-03-18T08:44:51.130Z,15.25
2023-03-18T08:47:18.008Z,19.10
2023-03-18T08:49:44.872Z,16.42
2023-03-18T08:52:11.987Z,16.23
2023-03-18T08:54:39.035Z,17.60
2023-03-18T08:57:05.981Z,13.30
2023-03-18T08:59:32.709Z,14.63
2023-03-18T09:01:59.436Z,13.00
2023-03-18T09:04:26.301Z,12.30
2023-03-18T09:06:53.104Z,13.35
2023-03-18T09:09:20.626Z,13.25
2023-03-18T09:11:48.351Z,12.07
2023-03-18T09:14:15.097Z,11.50
2023-03-18T09:16:41.977Z,10.25
2023-03-18T09:19:08.880Z,10.23
2023-03-18T09:21:36.192Z,11.95
2023-03-18T09:24:03.032Z,10.65
2023-03-18T09:26:29.886Z,10.93
2023-03-18T09:28:56.695Z,9.80
2023-03-18T09:31:23.562Z,14.07
2023-03-18T09:33:50.635Z,9.52
2023-03-18T09:36:18.261Z,8.80
2023-03-18T09:38:45.200Z,8.45
2023-03-18T09:41:36.177Z,7.80
2023-03-18T09:44:08.916Z,7.97
2023-03-18T09:46:57.400Z,10.25
2023-03-18T09:49:44.837Z,9.98
2023-03-18T09:52:38.303Z,8.10
2023-03-18T09:55:23.659Z,8.48
2023-03-18T09:57:51.726Z,7.50
2023-03-18T10:00:21.229Z,7.72
2023-03-18T10:03:11.213Z,7.22
2023-03-18T10:05:52.297Z,8.30
2023-03-18T10:08:57.323Z,8.93
2023-03-18T10:11:27.677Z,8.68
2023-03-18T10:14:07.533Z,8.63
2023-03-18T10:16:52.716Z,8.15
2023-03-18T10:19:20.237Z,8.25
2023-03-18T10:22:12.841Z,8.80
2023-03-18T10:24:51.972Z,11.65
2023-03-18T10:27:40.815Z,11.57
2023-03-18T10:30:29.974Z,12.10
2023-03-18T10:33:00.321Z,9.98
2023-03-18T10:35:32.036Z,9.70
2023-03-18T10:38:12.309Z,8.50
2023-03-18T10:40:40.094Z,7.43
2023-03-18T10:43:19.553Z,7.13
2023-03-18T10:45:48.389Z,6.75
2023-03-18T10:48:32.766Z,6.60
2023-03-18T10:51:19.842Z,8.07
2023-03-18T10:54:07.452Z,8.23
2023-03-18T10:56:36.035Z,8.77
2023-03-18T10:59:10.231Z,7.53
2023-03-18T11:01:37.074Z,8.85
2023-03-18T11:04:06.769Z,8.57
2023-03-18T11:06:41.775Z,7.07
2023-03-18T11:09:20.101Z,7.28
2023-03-18T11:11:48.858Z,7.95
2023-03-18T11:14:21.152Z,16.38
2023-03-18T11:16:57.076Z,10.07
2023-03-18T11:19:41.459Z,9.02
2023-03-18T11:22:08.306Z,8.20
2023-03-18T11:24:44.589Z,7.00
2023-03-18T11:27:15.660Z,7.45
2023-03-18T11:30:14.713Z,7.05
2023-03-18T11:32:53.768Z,8.07
2023-03-18T11:35:26.692Z,9.18
2023-03-18T11:37:53.815Z,6.90
2023-03-18T11:40:25.913Z,9.25
2023-03-18T11:42:57.972Z,8.07
2023-03-18T11:45:54.797Z,7.32
2023-03-18T11:48:31.855Z,7.70
2023-03-18T11:51:35.232Z,6.10
2023-03-18T11:54:33.658Z,7.78
2023-03-18T11:57:16.084Z,6.95
2023-03-18T11:59:46.516Z,6.97
2023-03-18T12:02:30.994Z,7.57
2023-03-18T12:05:11.063Z,6.95
2023-03-18T12:07:50.264Z,6.95
2023-03-18T12:10:27.327Z,6.20
2023-03-18T12:13:18.018Z,6.70
2023-03-18T12:15:54.501Z,7.55
2023-03-18T12:18:49.044Z,6.90
2023-03-18T12:21:49.944Z,7.47
2023-03-18T12:24:26.054Z,7.82
2023-03-18T12:27:18.729Z,7.53
2023-03-18T12:30:19.356Z,6.22
2023-03-18T12:32:51.156Z,7.00
2023-03-18T12:35:23.911Z,7.07
2023-03-18T12:38:35.924Z,7.75
2023-03-18T12:41:05.717Z,8.05
2023-03-18T12:44:08.063Z,7.78
2023-03-18T12:46:40.432Z,6.93
2023-03-18T12:49:20.019Z,7.35
2023-03-18T12:52:02.017Z,7.75
2023-03-18T12:54:31.276Z,7.78
2023-03-18T12:59:39.061Z,11.00
2023-03-18T13:02:32.739Z,8.80
2023-03-18T13:05:00.959Z,8.93
2023-03-18T13:07:40.879Z,8.38
2023-03-18T13:10:23.631Z,7.88
2023-03-18T13:12:54.940Z,9.50
2023-03-18T13:15:51.509Z,11.30
2023-03-18T13:18:43.001Z,12.10
2023-03-18T13:21:14.217Z,12.40
2023-03-18T13:24:05.382Z,12.52
2023-03-18T13:27:02.100Z,9.73
2023-03-18T13:29:43.457Z,11.68
2023-03-18T13:32:33.329Z,8.88
2023-03-18T13:35:06.451Z,8.60
2023-03-18T13:37:48.876Z,9.93
2023-03-18T13:40:33.893Z,7.50
2023-03-18T13:43:01.688Z,8.10
2023-03-18T13:45:31.726Z,11.18
2023-03-18T13:48:05.572Z,9.10
2023-03-18T13:50:35.374Z,7.85
2023-03-18T13:53:02.951Z,8.68
2023-03-18T13:55:39.995Z,7.35
2023-03-18T13:58:09.672Z,6.72
2023-03-18T14:03:30.813Z,8.38
2023-03-18T14:06:14.032Z,7.53
2023-03-18T14:08:42.953Z,7.47
2023-03-18T14:11:15.432Z,8.30
2023-03-18T14:14:02.066Z,8.18
2023-03-18T14:16:38.082Z,8.68
2023-03-18T14:19:22.174Z,8.95
2023-03-18T14:21:53.452Z,8.45
2023-03-18T14:24:21.891Z,8.27
2023-03-18T14:27:03.763Z,9.00
2023-03-18T14:29:31.411Z,7.80
2023-03-18T14:31:59.353Z,7.93
2023-03-18T14:34:28.079Z,8.77
2023-03-18T14:36:54.907Z,7.73
2023-03-18T14:39:48.013Z,8.05
2023-03-18T14:42:27.345Z,9.18
2023-03-18T14:44:54.858Z,11.07
2023-03-18T14:47:38.669Z,8.23
2023-03-18T14:50:14.354Z,8.80
2023-03-18T14:52:42.327Z,9.57
2023-03-18T14:55:18.238Z,7.90
2023-03-18T14:57:46.528Z,8.82
2023-03-18T15:00:17.020Z,8.90
2023-03-18T15:02:44.454Z,8.55
2023-03-18T15:05:16.747Z,7.60
2023-03-18T15:07:44.209Z,11.43
2023-03-18T15:10:20.125Z,11.23
2023-03-18T15:12:58.127Z,10.70
2023-03-18T15:15:25.002Z,10.23
2023-03-18T15:17:52.703Z,9.10
2023-03-18T15:20:19.670Z,7.70
2023-03-18T15:22:46.636Z,9.00
2023-03-18T15:25:20.712Z,11.85
2023-03-18T15:27:48.429Z,7.63
2023-03-18T15:30:25.836Z,9.45
2023-03-18T15:32:56.633Z,7.63
2023-03-18T15:35:27.537Z,8.05
2023-03-18T15:38:13.436Z,8.30
2023-03-18T15:40:54.891Z,8.00
2023-03-18T15:43:29.129Z,6.95
2023-03-18T15:46:00.215Z,7.60
2023-03-18T15:48:42.727Z,6.88
2023-03-18T15:51:23.431Z,8.02
2023-03-18T15:53:52.828Z,10.15
2023-03-18T15:56:30.266Z,11.00
2023-03-18T15:59:09.274Z,8.35
2023-03-18T16:01:36.461Z,9.15
2023-03-18T16:04:08.348Z,7.30
2023-03-18T16:06:35.284Z,7.80
2023-03-18T16:09:06.137Z,7.13
2023-03-18T16:11:32.941Z,7.25
2023-03-18T16:13:59.913Z,10.18
2023-03-18T16:16:28.538Z,9.30
2023-03-18T16:18:57.324Z,8.43
2023-03-18T16:21:24.210Z,7.88
2023-03-18T16:23:51.623Z,9.32
2023-03-18T16:26:18.508Z,9.10
2023-03-18T16:28:47.911Z,7.18
2023-03-18T16:31:15.469Z,6.72
2023-03-18T16:33:42.671Z,6.90
2023-03-18T16:36:11.517Z,6.38
2023-03-18T16:38:41.144Z,7.45
2023-03-18T16:43:35.019Z,6.60
2023-03-18T16:46:05.845Z,6.90
2023-03-18T16:48:32.788Z,7.60
2023-03-18T16:51:02.602Z,8.95
2023-03-18T16:53:30.003Z,7.55
2023-03-18T16:56:02.269Z,7.72
2023-03-18T16:58:35.935Z,6.82
2023-03-18T17:01:06.420Z,8.27
2023-03-18T17:03:34.158Z,7.75
2023-03-18T17:06:00.964Z,8.30
2023-03-18T17:08:27.827Z,8.23
2023-03-18T17:10:55.933Z,6.55
2023-03-18T17:13:24.350Z,8.88
2023-03-18T17:15:51.296Z,8.23
2023-03-18T17:18:22.611Z,7.68
2023-03-18T17:20:49.475Z,7.18
2023-03-18T17:23:17.891Z,7.32
2023-03-18T17:25:49.819Z,7.60
2023-03-18T17:28:43.952Z,7.53
2023-03-18T17:31:11.683Z,6.82
2023-03-18T17:33:38.515Z,8.60
2023-03-18T17:36:06.797Z,9.45
2023-03-18T17:38:35.307Z,10.30
2023-03-18T17:41:03.912Z,6.82
2023-03-18T17:43:32.596Z,8.10
2023-03-18T17:46:00.684Z,8.10
2023-03-18T17:48:28.723Z,8.15
2023-03-18T17:50:57.127Z,10.55
2023-03-18T17:53:25.110Z,7.55
2023-03-18T17:55:52.012Z,7.00
2023-03-18T17:58:19.679Z,11.13
2023-03-18T18:00:46.947Z,7.18
2023-03-18T18:03:28.046Z,7.20
2023-03-18T18:05:55.432Z,9.70
2023-03-18T18:08:23.266Z,8.68
2023-03-18T18:10:50.123Z,7.10
2023-03-18T18:13:22.262Z,7.18
2023-03-18T18:15:49.664Z,6.45
2023-03-18T18:18:23.760Z,7.57
2023-03-18T18:20:55.366Z,7.82
2023-03-18T18:23:30.190Z,7.03
2023-03-18T18:26:01.380Z,7.97
2023-03-18T18:28:33.355Z,9.20
2023-03-18T18:31:01.850Z,9.05
2023-03-18T18:33:30.619Z,8.43
2023-03-18T18:35:58.036Z,9.07
2023-03-18T18:38:26.013Z,8.32
2023-03-18T18:40:53.703Z,7.47
2023-03-18T18:43:21.215Z,7.95
2023-03-18T18:45:52.643Z,8.38
2023-03-18T18:48:30.438Z,8.15
2023-03-18T18:50:58.649Z,11.65
2023-03-18T18:53:25.537Z,8.93
2023-03-18T18:55:53.266Z,7.95
2023-03-18T18:58:28.690Z,8.23
2023-03-18T19:00:55.694Z,10.00
2023-03-18T19:03:23.344Z,7.53
2023-03-18T19:05:51.787Z,10.10
2023-03-18T19:08:25.330Z,7.45
2023-03-18T19:10:53.322Z,8.52
2023-03-18T19:13:20.077Z,8.18
2023-03-18T19:15:48.801Z,7.70
2023-03-18T19:18:38.557Z,8.80
2023-03-18T19:23:35.488Z,8.00
2023-03-18T19:26:02.835Z,7.75
2023-03-18T19:28:58.578Z,8.40
2023-03-18T19:31:27.329Z,8.38
2023-03-18T19:33:54.512Z,8.75
2023-03-18T19:36:37.401Z,8.63
2023-03-18T19:39:04.765Z,10.68
2023-03-18T19:41:31.655Z,9.02
2023-03-18T19:44:01.977Z,11.35
2023-03-18T19:46:36.170Z,10.20
2023-03-18T19:49:25.053Z,8.45
2023-03-18T19:51:51.916Z,8.60
2023-03-18T19:54:27.327Z,9.80
2023-03-18T19:56:54.860Z,11.40
2023-03-18T19:59:25.503Z,9.57
2023-03-18T20:01:52.248Z,8.70
2023-03-18T20:04:19.536Z,8.57
2023-03-18T20:06:50.486Z,8.45
2023-03-18T20:09:20.357Z,9.30
2023-03-18T20:14:30.607Z,9.43
2023-03-18T20:17:00.776Z,8.07
2023-03-18T20:19:27.560Z,9.32
2023-03-18T20:21:55.454Z,8.85
2023-03-18T20:24:26.052Z,8.45
2023-03-18T20:26:52.767Z,8.57
2023-03-18T20:29:21.296Z,8.55
2023-03-18T20:31:48.138Z,8.57
2023-03-18T20:34:14.992Z,8.52
2023-03-18T20:36:41.952Z,8.55
2023-03-18T20:39:17.908Z,9.15
2023-03-18T20:41:44.787Z,9.65
2023-03-18T20:44:12.610Z,9.82
2023-03-18T20:46:40.564Z,9.55
2023-03-18T20:49:07.569Z,9.70
2023-03-18T20:51:37.997Z,9.88
2023-03-18T20:54:31.557Z,15.98
2023-03-18T20:56:58.313Z,15.57
2023-03-18T20:59:25.255Z,15.38
2023-03-18T21:01:52.181Z,16.45
2023-03-18T21:04:19.044Z,16.52
2023-03-18T21:06:46.492Z,14.88
2023-03-18T21:09:14.060Z,12.40
2023-03-18T21:11:40.991Z,13.70
2023-03-18T21:14:10.072Z,12.38
2023-03-18T21:16:38.015Z,14.65
2023-03-18T21:19:05.062Z,13.50
2023-03-18T21:21:43.104Z,12.60
2023-03-18T21:24:36.278Z,14.13
2023-03-18T21:27:05.301Z,15.13
2023-03-18T21:29:33.140Z,14.43
2023-03-18T21:32:00.300Z,11.40
2023-03-18T21:34:27.115Z,12.57
2023-03-18T21:36:53.921Z,11.65
2023-03-18T21:39:21.523Z,11.15
2023-03-18T21:41:48.257Z,12.43
2023-03-18T21:44:15.002Z,12.57
2023-03-18T21:46:41.948Z,11.45
2023-03-18T21:49:08.805Z,10.75
2023-03-18T21:51:39.450Z,11.43
2023-03-18T21:54:28.294Z,11.85
2023-03-18T21:56:55.041Z,12.65
2023-03-18T21:59:21.818Z,14.05
2023-03-18T22:01:48.844Z,12.77
2023-03-18T22:04:15.701Z,12.15
2023-03-18T22:06:42.523Z,11.02
2023-03-18T22:09:09.988Z,11.30
2023-03-18T22:11:36.767Z,9.70
2023-03-18T22:14:03.487Z,10.70
2023-03-18T22:16:30.605Z,12.60
2023-03-18T22:18:57.350Z,12.40
2023-03-18T22:21:25.385Z,10.15
2023-03-18T22:23:52.748Z,9.85
2023-03-18T22:26:19.805Z,12.95
2023-03-18T22:28:46.793Z,12.35
2023-03-18T22:31:33.980Z,12.30
2023-03-18T22:34:00.739Z,12.15
2023-03-18T22:36:29.460Z,10.60
2023-03-18T22:38:56.440Z,11.82
2023-03-18T22:41:24.920Z,10.80
2023-03-18T22:43:51.713Z,10.85
2023-03-18T22:46:18.768Z,11.07
2023-03-18T22:48:45.743Z,10.05
2023-03-18T22:51:27.693Z,10.32
2023-03-18T22:53:54.922Z,13.15
2023-03-18T22:56:22.404Z,9.52
2023-03-18T22:58:49.478Z,11.35
2023-03-18T23:01:17.559Z,11.77
2023-03-18T23:03:44.915Z,11.95
2023-03-18T23:06:17.129Z,10.45
2023-03-18T23:08:45.672Z,10.55
2023-03-18T23:11:12.605Z,9.60
2023-03-18T23:13:41.047Z,9.00
2023-03-18T23:16:09.730Z,11.25
2023-03-18T23:18:37.601Z,10.38
2023-03-18T23:21:04.617Z,9.95
2023-03-18T23:23:31.858Z,9.55
2023-03-18T23:25:58.647Z,9.80
2023-03-18T23:28:26.111Z,9.93
2023-03-18T23:30:52.965Z,10.57
2023-03-18T23:33:19.886Z,9.57
2023-03-18T23:35:47.660Z,9.98
2023-03-18T23:38:14.466Z,9.25
2023-03-18T23:40:41.269Z,9.45
2023-03-18T23:43:09.497Z,9.27
2023-03-18T23:45:37.699Z,9.60
2023-03-18T23:48:05.389Z,8.65
2023-03-18T23:50:32.266Z,8.63
2023-03-18T23:52:59.529Z,8.50
2023-03-18T23:55:34.427Z,8.65
2023-03-18T23:58:02.262Z,8.63
